createdAt,value
2023-04-13T00:04:42.978Z,15.10
2023-04-13T00:09:47.347Z,15.40
2023-04-13T00:14:50.993Z,15.23
2023-04-13T00:19:59.510Z,15.13
2023-04-13T00:25:01.938Z,15.57
2023-04-13T00:30:07.509Z,16.57
2023-04-13T00:35:12.031Z,14.97
2023-04-13T00:40:16.768Z,15.90
2023-04-13T00:45:19.919Z,15.70
2023-04-13T00:50:22.558Z,15.20
2023-04-13T00:55:25.165Z,15.53
2023-04-13T01:00:27.759Z,14.90
2023-04-13T01:05:43.279Z,15.30
2023-04-13T01:11:06.122Z,14.93
2023-04-13T01:16:20.575Z,16.33
2023-04-13T01:21:28.832Z,16.23
2023-04-13T01:26:43.962Z,18.83
2023-04-13T01:31:47.078Z,16.53
2023-04-13T01:36:51.682Z,15.43
2023-04-13T01:41:54.348Z,16.60
2023-04-13T01:47:15.625Z,15.80
2023-04-13T01:52:41.567Z,15.20
2023-04-13T01:57:48.802Z,15.27
2023-04-13T02:02:54.453Z,15.03
2023-04-13T02:07:57.147Z,15.33
2023-04-13T02:12:59.740Z,15.10
2023-04-13T02:18:02.462Z,15.30
2023-04-13T02:23:04.996Z,14.90
2023-04-13T02:28:09.115Z,15.33
2023-04-13T02:33:11.538Z,14.27
2023-04-13T02:38:15.675Z,16.07
2023-04-13T02:43:21.610Z,15.20
2023-04-13T02:48:24.126Z,16.63
2023-04-13T02:53:27.236Z,16.03
2023-04-13T02:58:35.206Z,19.67
2023-04-13T03:03:42.036Z,17.53
2023-04-13T03:08:46.378Z,16.23
2023-04-13T03:13:54.660Z,18.37
2023-04-13T03:18:57.223Z,15.57
2023-04-13T03:24:00.978Z,15.63
2023-04-13T03:29:04.242Z,15.40
2023-04-13T03:34:10.808Z,18.33
2023-04-13T03:39:14.414Z,15.63
2023-04-13T03:44:17.113Z,15.47
2023-04-13T03:49:19.857Z,16.67
2023-04-13T03:54:22.435Z,14.93
2023-04-13T03:59:26.031Z,15.53
2023-04-13T04:04:28.838Z,14.27
2023-04-13T04:09:32.166Z,13.77
2023-04-13T04:14:34.757Z,13.90
2023-04-13T04:19:59.907Z,14.93
2023-04-13T04:25:02.497Z,15.17
2023-04-13T04:30:11.124Z,15.00
2023-04-13T04:35:14.608Z,15.67
2023-04-13T04:40:24.299Z,15.80
2023-04-13T04:45:27.913Z,18.70
2023-04-13T04:50:33.562Z,15.50
2023-04-13T04:55:46.948Z,15.53
2023-04-13T05:01:01.085Z,15.13
2023-04-13T05:06:05.801Z,13.97
2023-04-13T05:11:09.526Z,15.80
2023-04-13T05:16:12.852Z,15.60
2023-04-13T05:21:16.817Z,13.43
2023-04-13T05:26:29.082Z,15.23
2023-04-13T05:31:31.683Z,14.00
2023-04-13T05:36:34.269Z,15.23
2023-04-13T05:41:41.195Z,16.50
2023-04-13T05:46:43.773Z,15.87
2023-04-13T05:51:46.332Z,16.10
2023-04-13T05:56:48.872Z,14.73
2023-04-13T06:01:52.302Z,15.07
2023-04-13T06:06:56.045Z,14.50
2023-04-13T06:11:58.577Z,13.67
2023-04-13T06:17:01.472Z,13.57
2023-04-13T06:22:03.960Z,12.77
2023-04-13T06:27:13.865Z,14.27
2023-04-13T06:32:19.530Z,13.43
2023-04-13T06:37:22.418Z,13.60
2023-04-13T06:42:26.969Z,16.27
2023-04-13T06:47:56.051Z,14.73
2023-04-13T06:53:00.726Z,15.20
2023-04-13T06:58:03.614Z,14.73
2023-04-13T07:03:06.208Z,14.67
2023-04-13T07:08:13.137Z,14.33
2023-04-13T07:13:18.419Z,18.63
2023-04-13T07:18:21.782Z,47.63
2023-04-13T07:23:25.146Z,20.70
2023-04-13T07:28:28.140Z,26.37
2023-04-13T07:33:33.230Z,16.40
2023-04-13T07:38:35.686Z,42.37
2023-04-13T07:43:38.486Z,65.40
2023-04-13T07:48:46.343Z,41.13
2023-04-13T07:53:58.047Z,28.53
2023-04-13T07:59:02.955Z,47.53
2023-04-13T08:04:08.301Z,27.63
2023-04-13T08:09:12.156Z,26.13
2023-04-13T08:14:15.242Z,14.00
2023-04-13T08:19:18.191Z,10.63
2023-04-13T08:24:25.636Z,11.50
2023-04-13T08:29:28.908Z,26.90
2023-04-13T08:34:32.654Z,12.63
2023-04-13T08:39:38.118Z,33.07
2023-04-13T08:44:43.205Z,18.30
2023-04-13T08:49:48.883Z,10.87
2023-04-13T08:54:55.775Z,13.00
2023-04-13T09:00:06.645Z,9.33
2023-04-13T09:05:16.545Z,12.57
2023-04-13T09:10:25.966Z,18.87
2023-04-13T09:15:30.854Z,6.80
2023-04-13T09:20:58.736Z,6.67
2023-04-13T09:26:10.587Z,8.40
2023-04-13T09:31:13.845Z,8.65
2023-04-13T09:41:53.090Z,7.43
2023-04-13T09:47:03.533Z,6.90
2023-04-13T09:52:28.269Z,7.63
2023-04-13T09:57:32.411Z,4.17
2023-04-13T10:02:36.040Z,2.60
2023-04-13T10:07:40.261Z,3.50
2023-04-13T10:12:55.040Z,3.40
2023-04-13T10:18:26.099Z,4.40
2023-04-13T10:23:32.166Z,3.93
2023-04-13T10:28:44.976Z,4.60
2023-04-13T10:33:51.133Z,2.70
2023-04-13T10:38:53.563Z,3.50
2023-04-13T10:44:07.125Z,4.30
2023-04-13T10:49:09.769Z,4.53
2023-04-13T10:54:14.243Z,12.53
2023-04-13T10:59:17.028Z,12.77
2023-04-13T11:04:19.699Z,13.03
2023-04-13T11:09:22.863Z,11.90
2023-04-13T11:14:25.527Z,10.87
2023-04-13T11:19:27.950Z,10.50
2023-04-13T11:24:34.300Z,11.53
2023-04-13T11:29:36.960Z,10.77
2023-04-13T11:34:39.518Z,5.73
2023-04-13T11:39:44.542Z,22.60
2023-04-13T11:44:47.308Z,7.30
2023-04-13T11:49:50.528Z,4.50
2023-04-13T11:54:54.386Z,31.03
2023-04-13T11:59:57.156Z,4.10
2023-04-13T12:05:01.682Z,3.80
2023-04-13T12:10:06.230Z,5.57
2023-04-13T12:15:22.853Z,4.00
2023-04-13T12:20:37.986Z,3.70
2023-04-13T12:25:42.038Z,4.30
2023-04-13T12:30:47.315Z,7.27
2023-04-13T12:35:49.729Z,35.70
2023-04-13T12:40:59.380Z,13.23
2023-04-13T12:46:02.187Z,13.17
2023-04-13T12:51:04.924Z,3.70
2023-04-13T12:56:07.741Z,11.70
2023-04-13T13:01:10.647Z,11.87
2023-04-13T13:06:13.081Z,5.03
2023-04-13T13:11:15.550Z,8.27
2023-04-13T13:16:35.948Z,5.13
2023-04-13T13:21:38.492Z,2.80
2023-04-13T13:31:48.328Z,7.77
2023-04-13T13:36:50.789Z,2.15
2023-04-13T13:41:53.244Z,2.43
2023-04-13T13:46:55.789Z,1.57
2023-04-13T13:52:01.086Z,1.60
2023-04-13T13:57:07.920Z,3.43
2023-04-13T14:02:10.515Z,1.83
2023-04-13T14:07:13.207Z,2.27
2023-04-13T14:12:16.075Z,2.40
2023-04-13T14:17:18.525Z,3.27
2023-04-13T14:22:21.508Z,2.80
2023-04-13T14:27:23.983Z,3.13
2023-04-13T14:32:26.774Z,3.57
2023-04-13T14:37:29.960Z,2.97
2023-04-13T14:42:32.408Z,3.93
2023-04-13T14:47:35.512Z,3.10
2023-04-13T14:52:38.048Z,2.03
2023-04-13T14:57:40.770Z,2.03
2023-04-13T15:02:43.340Z,2.20
2023-04-13T15:07:46.179Z,1.43
2023-04-13T15:12:48.618Z,1.17
2023-04-13T15:17:51.963Z,1.70
2023-04-13T15:22:55.817Z,1.60
2023-04-13T15:27:58.910Z,2.20
2023-04-13T15:33:02.925Z,1.60
2023-04-13T15:38:05.672Z,1.80
2023-04-13T15:43:08.175Z,1.50
2023-04-13T15:48:11.187Z,1.97
2023-04-13T15:53:13.717Z,2.45
2023-04-13T15:58:16.989Z,2.83
2023-04-13T16:03:19.590Z,3.00
2023-04-13T16:08:22.241Z,2.17
2023-04-13T16:13:28.319Z,1.67
2023-04-13T16:18:40.285Z,2.03
2023-04-13T16:23:43.866Z,1.80
2023-04-13T16:28:46.679Z,2.60
2023-04-13T16:33:55.614Z,2.77
2023-04-13T16:39:07.683Z,3.23
2023-04-13T16:44:10.114Z,3.73
2023-04-13T16:49:12.603Z,4.37
2023-04-13T16:54:16.475Z,4.30
2023-04-13T16:59:19.457Z,4.93
2023-04-13T17:04:21.951Z,4.60
2023-04-13T17:09:24.393Z,4.70
2023-04-13T17:14:27.052Z,5.17
2023-04-13T17:19:29.475Z,5.30
2023-04-13T17:24:32.458Z,7.10
2023-04-13T17:29:37.905Z,10.57
2023-04-13T17:34:44.805Z,12.53
2023-04-13T17:39:47.756Z,11.40
2023-04-13T17:44:50.381Z,7.53
2023-04-13T17:49:53.341Z,6.87
2023-04-13T17:54:55.766Z,9.03
2023-04-13T17:59:58.201Z,6.43
2023-04-13T18:05:00.706Z,5.17
2023-04-13T18:10:03.290Z,4.97
2023-04-13T18:15:07.194Z,7.30
2023-04-13T18:20:10.173Z,4.73
2023-04-13T18:25:12.621Z,8.57
2023-04-13T18:30:15.356Z,4.77
2023-04-13T18:35:18.633Z,4.83
2023-04-13T18:40:21.396Z,4.33
2023-04-13T18:45:23.899Z,4.67
2023-04-13T18:50:29.441Z,4.27
2023-04-13T18:55:32.002Z,4.17
2023-04-13T19:00:34.505Z,3.67
2023-04-13T19:05:37.067Z,3.40
2023-04-13T19:10:39.525Z,4.00
2023-04-13T19:15:41.968Z,4.90
2023-04-13T19:20:44.391Z,6.10
2023-04-13T19:25:46.853Z,6.27
2023-04-13T19:30:49.429Z,3.80
2023-04-13T19:35:52.540Z,3.70
2023-04-13T19:40:54.964Z,4.20
2023-04-13T19:45:57.512Z,4.87
2023-04-13T19:51:00.028Z,4.27
2023-04-13T19:56:06.029Z,4.20
2023-04-13T20:01:10.265Z,4.10
2023-04-13T20:06:12.961Z,4.50
2023-04-13T20:11:15.698Z,3.97
2023-04-13T20:16:18.524Z,4.20
2023-04-13T20:21:21.500Z,4.90
2023-04-13T20:26:27.885Z,4.57
2023-04-13T20:31:32.549Z,4.03
2023-04-13T20:36:35.005Z,5.40
2023-04-13T20:41:38.932Z,5.13
2023-04-13T20:46:49.414Z,5.00
2023-04-13T20:51:56.439Z,5.30
2023-04-13T20:56:59.002Z,5.10
2023-04-13T21:02:01.512Z,5.57
2023-04-13T21:07:04.252Z,5.20
2023-04-13T21:12:06.871Z,4.87
2023-04-13T21:17:09.390Z,4.80
2023-04-13T21:22:11.872Z,4.93
2023-04-13T21:27:14.481Z,5.03
2023-04-13T21:32:17.134Z,4.90
2023-04-13T21:37:19.680Z,4.93
2023-04-13T21:42:22.790Z,4.70
2023-04-13T21:47:25.410Z,4.63
2023-04-13T21:52:29.043Z,5.07
2023-04-13T21:57:31.738Z,4.73
2023-04-13T22:02:34.274Z,5.03
2023-04-13T22:07:42.395Z,4.93
2023-04-13T22:12:46.387Z,5.10
2023-04-13T22:17:48.895Z,5.13
2023-04-13T22:22:51.351Z,5.70
2023-04-13T22:27:54.478Z,5.47
2023-04-13T22:32:57.418Z,5.90
2023-04-13T22:37:59.862Z,5.30
2023-04-13T22:43:02.268Z,5.60
2023-04-13T22:48:05.030Z,5.87
2023-04-13T22:53:07.475Z,6.17
2023-04-13T22:58:09.874Z,6.23
2023-04-13T23:03:13.348Z,6.17
2023-04-13T23:08:15.985Z,7.10
2023-04-13T23:13:18.421Z,6.50
2023-04-13T23:18:20.826Z,7.13
2023-04-13T23:23:23.322Z,7.30
2023-04-13T23:28:25.900Z,7.77
2023-04-13T23:33:29.410Z,7.57
2023-04-13T23:38:32.785Z,7.33
2023-04-13T23:43:35.648Z,7.70
2023-04-13T23:48:38.135Z,7.73
2023-04-13T23:53:40.694Z,8.10
2023-04-13T23:58:43.166Z,7.90
